sensor_id;sensor_type;location;lat;lon;timestamp;P1;durP1;ratioP1;P2;durP2;ratioP2
37559;SDS011;23398;50.928;7.084;2024-01-11T00:00:04;14.43;;;7.57;;
37559;SDS011;23398;50.928;7.084;2024-01-11T00:02:31;13.93;;;7.70;;
37559;SDS011;23398;50.928;7.084;2024-01-11T00:04:56;14.77;;;7.90;;
37559;SDS011;23398;50.928;7.084;2024-01-11T00:07:22;16.03;;;7.70;;
37559;SDS011;23398;50.928;7.084;2024-01-11T00:09:47;13.80;;;7.63;;
37559;SDS011;23398;50.928;7.084;2024-01-11T00:12:13;11.97;;;7.53;;
37559;SDS011;23398;50.928;7.084;2024-01-11T00:14:39;12.23;;;7.73;;
37559;SDS011;23398;50.928;7.084;2024-01-11T00:17:05;14.47;;;7.90;;
37559;SDS011;23398;50.928;7.084;2024-01-11T00:19:31;17.23;;;7.90;;
37559;SDS011;23398;50.928;7.084;2024-01-11T00:21:57;14.43;;;7.77;;
37559;SDS011;23398;50.928;7.084;2024-01-11T00:24:22;15.27;;;8.10;;
37559;SDS011;23398;50.928;7.084;2024-01-11T00:26:48;15.77;;;7.80;;
37559;SDS011;23398;50.928;7.084;2024-01-11T00:29:13;15.47;;;8.20;;
37559;SDS011;23398;50.928;7.084;2024-01-11T00:31:39;16.00;;;7.97;;
37559;SDS011;23398;50.928;7.084;2024-01-11T00:34:04;14.93;;;8.90;;
37559;SDS011;23398;50.928;7.084;2024-01-11T00:36:30;15.03;;;8.37;;
37559;SDS011;23398;50.928;7.084;2024-01-11T00:38:58;15.70;;;8.30;;
37559;SDS011;23398;50.928;7.084;2024-01-11T00:41:24;16.00;;;8.30;;
37559;SDS011;23398;50.928;7.084;2024-01-11T00:43:50;18.60;;;8.97;;
37559;SDS011;23398;50.928;7.084;2024-01-11T00:46:16;16.60;;;8.30;;
37559;SDS011;23398;50.928;7.084;2024-01-11T00:48:41;15.90;;;8.10;;
37559;SDS011;23398;50.928;7.084;2024-01-11T00:51:07;15.87;;;7.93;;
37559;SDS011;23398;50.928;7.084;2024-01-11T00:53:32;17.03;;;8.70;;
37559;SDS011;23398;50.928;7.084;2024-01-11T00:55:58;14.63;;;8.30;;
37559;SDS011;23398;50.928;7.084;2024-01-11T00:58:24;15.47;;;8.60;;
37559;SDS011;23398;50.928;7.084;2024-01-11T01:00:50;15.40;;;8.43;;
37559;SDS011;23398;50.928;7.084;2024-01-11T01:03:17;16.10;;;8.87;;
37559;SDS011;23398;50.928;7.084;2024-01-11T01:05:44;17.73;;;9.10;;
37559;SDS011;23398;50.928;7.084;2024-01-11T01:08:10;17.97;;;8.70;;
37559;SDS011;23398;50.928;7.084;2024-01-11T01:10:35;13.70;;;7.77;;
37559;SDS011;23398;50.928;7.084;2024-01-11T01:13:01;14.03;;;7.90;;
37559;SDS011;23398;50.928;7.084;2024-01-11T01:15:27;15.10;;;8.27;;
37559;SDS011;23398;50.928;7.084;2024-01-11T01:17:53;15.77;;;8.40;;
37559;SDS011;23398;50.928;7.084;2024-01-11T01:20:19;16.23;;;8.60;;
37559;SDS011;23398;50.928;7.084;2024-01-11T01:22:44;17.37;;;8.87;;
37559;SDS011;23398;50.928;7.084;2024-01-11T01:25:10;15.17;;;8.57;;
37559;SDS011;23398;50.928;7.084;2024-01-11T01:27:35;16.23;;;8.63;;
37559;SDS011;23398;50.928;7.084;2024-01-11T01:30:01;18.57;;;8.87;;
37559;SDS011;23398;50.928;7.084;2024-01-11T01:32:27;17.57;;;9.40;;
37559;SDS011;23398;50.928;7.084;2024-01-11T01:34:52;15.93;;;9.23;;
37559;SDS011;23398;50.928;7.084;2024-01-11T01:37:18;17.53;;;8.70;;
37559;SDS011;23398;50.928;7.084;2024-01-11T01:39:43;18.07;;;8.80;;
37559;SDS011;23398;50.928;7.084;2024-01-11T01:42:09;14.50;;;8.93;;
37559;SDS011;23398;50.928;7.084;2024-01-11T01:44:35;16.17;;;8.53;;
37559;SDS011;23398;50.928;7.084;2024-01-11T01:47:00;14.30;;;8.67;;
37559;SDS011;23398;50.928;7.084;2024-01-11T01:49:29;15.23;;;8.63;;
37559;SDS011;23398;50.928;7.084;2024-01-11T01:51:54;15.27;;;8.53;;
37559;SDS011;23398;50.928;7.084;2024-01-11T01:54:20;15.60;;;7.73;;
37559;SDS011;23398;50.928;7.084;2024-01-11T01:56:48;14.43;;;8.43;;
37559;SDS011;23398;50.928;7.084;2024-01-11T01:59:14;17.33;;;9.60;;
37559;SDS011;23398;50.928;7.084;2024-01-11T02:01:41;14.97;;;8.30;;
37559;SDS011;23398;50.928;7.084;2024-01-11T02:04:07;15.23;;;8.53;;
37559;SDS011;23398;50.928;7.084;2024-01-11T02:06:33;17.87;;;8.60;;
37559;SDS011;23398;50.928;7.084;2024-01-11T02:09:00;15.70;;;8.40;;
37559;SDS011;23398;50.928;7.084;2024-01-11T02:11:28;15.63;;;8.83;;
37559;SDS011;23398;50.928;7.084;2024-01-11T02:13:55;14.47;;;8.17;;
37559;SDS011;23398;50.928;7.084;2024-01-11T02:16:20;18.17;;;9.17;;
37559;SDS011;23398;50.928;7.084;2024-01-11T02:18:46;18.70;;;9.50;;
37559;SDS011;23398;50.928;7.084;2024-01-11T02:21:12;15.83;;;8.57;;
37559;SDS011;23398;50.928;7.084;2024-01-11T02:23:43;15.73;;;8.40;;
37559;SDS011;23398;50.928;7.084;2024-01-11T02:26:14;16.87;;;8.67;;
37559;SDS011;23398;50.928;7.084;2024-01-11T02:28:43;14.33;;;8.90;;
37559;SDS011;23398;50.928;7.084;2024-01-11T02:31:12;15.03;;;8.17;;
37559;SDS011;23398;50.928;7.084;2024-01-11T02:33:38;16.87;;;9.00;;
37559;SDS011;23398;50.928;7.084;2024-01-11T02:36:05;14.87;;;8.90;;
37559;SDS011;23398;50.928;7.084;2024-01-11T02:38:31;17.50;;;9.20;;
37559;SDS011;23398;50.928;7.084;2024-01-11T02:40:58;16.00;;;8.27;;
37559;SDS011;23398;50.928;7.084;2024-01-11T02:43:24;15.13;;;8.60;;
37559;SDS011;23398;50.928;7.084;2024-01-11T02:45:54;16.63;;;8.57;;
37559;SDS011;23398;50.928;7.084;2024-01-11T02:48:20;16.23;;;8.60;;
37559;SDS011;23398;50.928;7.084;2024-01-11T02:50:46;16.23;;;9.03;;
37559;SDS011;23398;50.928;7.084;2024-01-11T02:53:12;17.10;;;9.43;;
37559;SDS011;23398;50.928;7.084;2024-01-11T02:55:37;19.50;;;9.87;;
37559;SDS011;23398;50.928;7.084;2024-01-11T02:58:03;16.77;;;8.80;;
37559;SDS011;23398;50.928;7.084;2024-01-11T03:00:29;16.53;;;9.63;;
37559;SDS011;23398;50.928;7.084;2024-01-11T03:02:54;19.33;;;10.07;;
37559;SDS011;23398;50.928;7.084;2024-01-11T03:05:20;16.63;;;10.27;;
37559;SDS011;23398;50.928;7.084;2024-01-11T03:07:45;18.17;;;9.63;;
37559;SDS011;23398;50.928;7.084;2024-01-11T03:10:11;15.10;;;8.90;;
37559;SDS011;23398;50.928;7.084;2024-01-11T03:12:36;16.03;;;9.37;;
37559;SDS011;23398;50.928;7.084;2024-01-11T03:15:02;17.67;;;9.93;;
37559;SDS011;23398;50.928;7.084;2024-01-11T03:17:28;15.63;;;8.90;;
37559;SDS011;23398;50.928;7.084;2024-01-11T03:19:53;16.80;;;9.00;;
37559;SDS011;23398;50.928;7.084;2024-01-11T03:22:19;15.17;;;9.43;;
37559;SDS011;23398;50.928;7.084;2024-01-11T03:24:44;17.00;;;9.30;;
37559;SDS011;23398;50.928;7.084;2024-01-11T03:27:10;16.23;;;9.30;;
37559;SDS011;23398;50.928;7.084;2024-01-11T03:29:36;16.10;;;9.93;;
37559;SDS011;23398;50.928;7.084;2024-01-11T03:32:01;19.07;;;9.43;;
37559;SDS011;23398;50.928;7.084;2024-01-11T03:34:27;16.50;;;9.57;;
37559;SDS011;23398;50.928;7.084;2024-01-11T03:36:52;16.23;;;9.13;;
37559;SDS011;23398;50.928;7.084;2024-01-11T03:39:18;16.63;;;9.43;;
37559;SDS011;23398;50.928;7.084;2024-01-11T03:41:44;15.07;;;8.57;;
37559;SDS011;23398;50.928;7.084;2024-01-11T03:44:09;16.60;;;9.43;;
37559;SDS011;23398;50.928;7.084;2024-01-11T03:46:35;16.73;;;8.93;;
37559;SDS011;23398;50.928;7.084;2024-01-11T03:49:01;18.80;;;9.40;;
37559;SDS011;23398;50.928;7.084;2024-01-11T03:51:27;17.63;;;9.63;;
37559;SDS011;23398;50.928;7.084;2024-01-11T03:53:52;16.90;;;8.93;;
37559;SDS011;23398;50.928;7.084;2024-01-11T03:56:18;15.00;;;8.67;;
37559;SDS011;23398;50.928;7.084;2024-01-11T03:58:44;16.60;;;9.00;;
37559;SDS011;23398;50.928;7.084;2024-01-11T04:01:10;15.60;;;9.47;;
37559;SDS011;23398;50.928;7.084;2024-01-11T04:03:36;17.27;;;9.87;;
37559;SDS011;23398;50.928;7.084;2024-01-11T04:06:02;14.90;;;8.83;;
37559;SDS011;23398;50.928;7.084;2024-01-11T04:08:28;16.43;;;8.67;;
37559;SDS011;23398;50.928;7.084;2024-01-11T04:10:54;15.93;;;9.17;;
37559;SDS011;23398;50.928;7.084;2024-01-11T04:13:20;19.50;;;9.47;;
37559;SDS011;23398;50.928;7.084;2024-01-11T04:15:45;19.10;;;9.70;;
37559;SDS011;23398;50.928;7.084;2024-01-11T04:18:11;17.30;;;9.60;;
37559;SDS011;23398;50.928;7.084;2024-01-11T04:20:37;17.17;;;9.33;;
37559;SDS011;23398;50.928;7.084;2024-01-11T04:23:02;17.17;;;9.67;;
37559;SDS011;23398;50.928;7.084;2024-01-11T04:25:28;18.80;;;9.67;;
37559;SDS011;23398;50.928;7.084;2024-01-11T04:27:53;16.50;;;9.23;;
37559;SDS011;23398;50.928;7.084;2024-01-11T04:30:19;18.40;;;9.80;;
37559;SDS011;23398;50.928;7.084;2024-01-11T04:32:44;17.10;;;9.50;;
37559;SDS011;23398;50.928;7.084;2024-01-11T04:35:10;18.60;;;9.77;;
37559;SDS011;23398;50.928;7.084;2024-01-11T04:37:36;17.90;;;9.80;;
37559;SDS011;23398;50.928;7.084;2024-01-11T04:40:01;16.87;;;8.63;;
37559;SDS011;23398;50.928;7.084;2024-01-11T04:42:28;15.67;;;8.93;;
37559;SDS011;23398;50.928;7.084;2024-01-11T04:44:54;17.17;;;9.03;;
37559;SDS011;23398;50.928;7.084;2024-01-11T04:47:19;17.13;;;9.70;;
37559;SDS011;23398;50.928;7.084;2024-01-11T04:49:45;22.17;;;10.50;;
37559;SDS011;23398;50.928;7.084;2024-01-11T04:52:11;16.97;;;9.40;;
37559;SDS011;23398;50.928;7.084;2024-01-11T04:54:36;19.23;;;9.70;;
37559;SDS011;23398;50.928;7.084;2024-01-11T04:57:03;16.43;;;9.60;;
37559;SDS011;23398;50.928;7.084;2024-01-11T04:59:29;16.10;;;8.87;;
37559;SDS011;23398;50.928;7.084;2024-01-11T05:01:54;15.37;;;9.03;;
37559;SDS011;23398;50.928;7.084;2024-01-11T05:04:20;16.87;;;9.07;;
37559;SDS011;23398;50.928;7.084;2024-01-11T05:06:45;16.33;;;9.37;;
37559;SDS011;23398;50.928;7.084;2024-01-11T05:09:11;18.90;;;9.30;;
37559;SDS011;23398;50.928;7.084;2024-01-11T05:11:37;16.20;;;8.43;;
37559;SDS011;23398;50.928;7.084;2024-01-11T05:14:03;19.30;;;9.40;;
37559;SDS011;23398;50.928;7.084;2024-01-11T05:16:28;16.87;;;8.47;;
37559;SDS011;23398;50.928;7.084;2024-01-11T05:18:54;17.70;;;8.67;;
37559;SDS011;23398;50.928;7.084;2024-01-11T05:21:21;18.17;;;9.00;;
37559;SDS011;23398;50.928;7.084;2024-01-11T05:23:48;16.50;;;8.37;;
37559;SDS011;23398;50.928;7.084;2024-01-11T05:26:14;13.50;;;8.27;;
37559;SDS011;23398;50.928;7.084;2024-01-11T05:28:41;15.10;;;8.80;;
37559;SDS011;23398;50.928;7.084;2024-01-11T05:31:07;16.20;;;8.50;;
37559;SDS011;23398;50.928;7.084;2024-01-11T05:33:37;16.07;;;8.33;;
37559;SDS011;23398;50.928;7.084;2024-01-11T05:36:04;13.43;;;7.77;;
37559;SDS011;23398;50.928;7.084;2024-01-11T05:38:30;15.60;;;8.93;;
37559;SDS011;23398;50.928;7.084;2024-01-11T05:40:55;15.63;;;8.13;;
37559;SDS011;23398;50.928;7.084;2024-01-11T05:43:24;16.23;;;8.07;;
37559;SDS011;23398;50.928;7.084;2024-01-11T05:45:50;13.60;;;8.17;;
37559;SDS011;23398;50.928;7.084;2024-01-11T05:48:15;15.53;;;8.27;;
37559;SDS011;23398;50.928;7.084;2024-01-11T05:50:42;15.30;;;8.07;;
37559;SDS011;23398;50.928;7.084;2024-01-11T05:53:11;16.20;;;8.33;;
37559;SDS011;23398;50.928;7.084;2024-01-11T05:55:37;15.30;;;8.13;;
37559;SDS011;23398;50.928;7.084;2024-01-11T05:58:03;15.53;;;8.50;;
37559;SDS011;23398;50.928;7.084;2024-01-11T06:00:28;14.47;;;8.03;;
37559;SDS011;23398;50.928;7.084;2024-01-11T06:02:54;15.37;;;8.60;;
37559;SDS011;23398;50.928;7.084;2024-01-11T06:05:20;15.03;;;8.50;;
37559;SDS011;23398;50.928;7.084;2024-01-11T06:07:45;17.57;;;9.07;;
37559;SDS011;23398;50.928;7.084;2024-01-11T06:10:11;15.53;;;8.53;;
37559;SDS011;23398;50.928;7.084;2024-01-11T06:12:36;19.30;;;9.40;;
37559;SDS011;23398;50.928;7.084;2024-01-11T06:15:02;17.27;;;9.07;;
37559;SDS011;23398;50.928;7.084;2024-01-11T06:17:28;17.30;;;8.60;;
37559;SDS011;23398;50.928;7.084;2024-01-11T06:19:54;17.83;;;9.10;;
37559;SDS011;23398;50.928;7.084;2024-01-11T06:22:20;15.27;;;8.37;;
37559;SDS011;23398;50.928;7.084;2024-01-11T06:24:45;16.57;;;8.57;;
37559;SDS011;23398;50.928;7.084;2024-01-11T06:27:11;13.53;;;8.10;;
37559;SDS011;23398;50.928;7.084;2024-01-11T06:29:36;15.30;;;8.53;;
37559;SDS011;23398;50.928;7.084;2024-01-11T06:32:02;15.53;;;8.13;;
37559;SDS011;23398;50.928;7.084;2024-01-11T06:34:28;15.07;;;8.07;;
37559;SDS011;23398;50.928;7.084;2024-01-11T06:36:54;16.87;;;8.10;;
37559;SDS011;23398;50.928;7.084;2024-01-11T06:39:20;18.37;;;10.80;;
37559;SDS011;23398;50.928;7.084;2024-01-11T06:41:46;18.23;;;9.70;;
37559;SDS011;23398;50.928;7.084;2024-01-11T06:44:11;17.43;;;9.40;;
37559;SDS011;23398;50.928;7.084;2024-01-11T06:46:37;16.73;;;8.73;;
37559;SDS011;23398;50.928;7.084;2024-01-11T06:49:04;16.47;;;9.17;;
37559;SDS011;23398;50.928;7.084;2024-01-11T06:51:30;18.30;;;10.00;;
37559;SDS011;23398;50.928;7.084;2024-01-11T06:53:55;20.53;;;10.47;;
37559;SDS011;23398;50.928;7.084;2024-01-11T06:56:21;19.00;;;10.30;;
37559;SDS011;23398;50.928;7.084;2024-01-11T06:58:47;17.60;;;9.17;;
37559;SDS011;23398;50.928;7.084;2024-01-11T07:01:12;21.23;;;12.77;;
37559;SDS011;23398;50.928;7.084;2024-01-11T07:03:38;19.37;;;11.17;;
37559;SDS011;23398;50.928;7.084;2024-01-11T07:06:05;17.43;;;9.67;;
37559;SDS011;23398;50.928;7.084;2024-01-11T07:08:31;16.00;;;8.83;;
37559;SDS011;23398;50.928;7.084;2024-01-11T07:11:00;15.87;;;9.57;;
37559;SDS011;23398;50.928;7.084;2024-01-11T07:13:29;14.50;;;8.73;;
37559;SDS011;23398;50.928;7.084;2024-01-11T07:15:56;15.77;;;9.50;;
37559;SDS011;23398;50.928;7.084;2024-01-11T07:18:22;20.93;;;10.10;;
37559;SDS011;23398;50.928;7.084;2024-01-11T07:20:49;17.77;;;10.43;;
37559;SDS011;23398;50.928;7.084;2024-01-11T07:23:15;20.17;;;10.93;;
37559;SDS011;23398;50.928;7.084;2024-01-11T07:25:41;17.80;;;10.07;;
37559;SDS011;23398;50.928;7.084;2024-01-11T07:28:07;17.60;;;8.80;;
37559;SDS011;23398;50.928;7.084;2024-01-11T07:30:33;17.17;;;9.90;;
37559;SDS011;23398;50.928;7.084;2024-01-11T07:32:58;15.93;;;9.60;;
37559;SDS011;23398;50.928;7.084;2024-01-11T07:35:24;18.03;;;9.57;;
37559;SDS011;23398;50.928;7.084;2024-01-11T07:37:50;16.77;;;9.07;;
37559;SDS011;23398;50.928;7.084;2024-01-11T07:40:15;16.87;;;9.07;;
37559;SDS011;23398;50.928;7.084;2024-01-11T07:42:41;17.77;;;9.23;;
37559;SDS011;23398;50.928;7.084;2024-01-11T07:45:07;16.77;;;9.30;;
37559;SDS011;23398;50.928;7.084;2024-01-11T07:47:35;17.90;;;9.30;;
37559;SDS011;23398;50.928;7.084;2024-01-11T07:50:02;16.40;;;8.83;;
37559;SDS011;23398;50.928;7.084;2024-01-11T07:52:39;16.77;;;9.17;;
37559;SDS011;23398;50.928;7.084;2024-01-11T07:55:08;19.87;;;10.07;;
37559;SDS011;23398;50.928;7.084;2024-01-11T07:57:38;18.93;;;9.73;;
37559;SDS011;23398;50.928;7.084;2024-01-11T08:00:04;17.83;;;9.33;;
37559;SDS011;23398;50.928;7.084;2024-01-11T08:02:33;17.83;;;9.37;;
37559;SDS011;23398;50.928;7.084;2024-01-11T08:04:59;14.30;;;8.73;;
37559;SDS011;23398;50.928;7.084;2024-01-11T08:07:25;16.60;;;9.70;;
37559;SDS011;23398;50.928;7.084;2024-01-11T08:09:55;17.77;;;9.73;;
37559;SDS011;23398;50.928;7.084;2024-01-11T08:12:20;15.70;;;9.03;;
37559;SDS011;23398;50.928;7.084;2024-01-11T08:14:46;18.77;;;10.47;;
37559;SDS011;23398;50.928;7.084;2024-01-11T08:17:13;18.73;;;10.93;;
37559;SDS011;23398;50.928;7.084;2024-01-11T08:19:39;18.43;;;9.83;;
37559;SDS011;23398;50.928;7.084;2024-01-11T08:22:05;19.63;;;10.50;;
37559;SDS011;23398;50.928;7.084;2024-01-11T08:24:31;20.67;;;10.60;;
37559;SDS011;23398;50.928;7.084;2024-01-11T08:26:57;20.20;;;10.50;;
37559;SDS011;23398;50.928;7.084;2024-01-11T08:29:23;21.50;;;10.97;;
37559;SDS011;23398;50.928;7.084;2024-01-11T08:31:49;20.40;;;11.60;;
37559;SDS011;23398;50.928;7.084;2024-01-11T08:34:15;24.53;;;12.30;;
37559;SDS011;23398;50.928;7.084;2024-01-11T08:36:41;22.23;;;11.07;;
37559;SDS011;23398;50.928;7.084;2024-01-11T08:39:06;26.27;;;12.00;;
37559;SDS011;23398;50.928;7.084;2024-01-11T08:41:32;22.80;;;12.00;;
37559;SDS011;23398;50.928;7.084;2024-01-11T08:44:02;20.53;;;11.20;;
37559;SDS011;23398;50.928;7.084;2024-01-11T08:46:30;23.43;;;11.90;;
37559;SDS011;23398;50.928;7.084;2024-01-11T08:48:58;22.07;;;11.93;;
37559;SDS011;23398;50.928;7.084;2024-01-11T08:51:24;22.40;;;11.90;;
37559;SDS011;23398;50.928;7.084;2024-01-11T08:53:49;21.40;;;11.67;;
37559;SDS011;23398;50.928;7.084;2024-01-11T08:56:15;21.67;;;11.67;;
37559;SDS011;23398;50.928;7.084;2024-01-11T08:58:42;22.70;;;11.63;;
37559;SDS011;23398;50.928;7.084;2024-01-11T09:01:08;22.50;;;12.23;;
37559;SDS011;23398;50.928;7.084;2024-01-11T09:03:34;18.27;;;11.17;;
37559;SDS011;23398;50.928;7.084;2024-01-11T09:06:00;20.87;;;12.13;;
37559;SDS011;23398;50.928;7.084;2024-01-11T09:08:27;19.23;;;11.80;;
37559;SDS011;23398;50.928;7.084;2024-01-11T09:10:52;20.40;;;12.00;;
37559;SDS011;23398;50.928;7.084;2024-01-11T09:13:18;20.70;;;12.27;;
37559;SDS011;23398;50.928;7.084;2024-01-11T09:15:44;18.63;;;11.73;;
37559;SDS011;23398;50.928;7.084;2024-01-11T09:18:09;17.33;;;10.77;;
37559;SDS011;23398;50.928;7.084;2024-01-11T09:20:35;20.73;;;11.23;;
37559;SDS011;23398;50.928;7.084;2024-01-11T09:23:01;18.83;;;12.00;;
37559;SDS011;23398;50.928;7.084;2024-01-11T09:25:30;18.95;;;11.98;;
37559;SDS011;23398;50.928;7.084;2024-01-11T09:27:55;21.65;;;13.00;;
37559;SDS011;23398;50.928;7.084;2024-01-11T09:30:21;18.08;;;12.32;;
37559;SDS011;23398;50.928;7.084;2024-01-11T09:32:47;19.83;;;12.23;;
37559;SDS011;23398;50.928;7.084;2024-01-11T09:35:13;21.38;;;12.75;;
37559;SDS011;23398;50.928;7.084;2024-01-11T09:37:39;21.25;;;13.57;;
37559;SDS011;23398;50.928;7.084;2024-01-11T09:40:05;19.95;;;13.35;;
37559;SDS011;23398;50.928;7.084;2024-01-11T09:42:35;19.02;;;12.63;;
37559;SDS011;23398;50.928;7.084;2024-01-11T09:45:07;18.05;;;12.77;;
37559;SDS011;23398;50.928;7.084;2024-01-11T09:47:35;19.15;;;13.43;;
37559;SDS011;23398;50.928;7.084;2024-01-11T09:50:02;20.27;;;13.07;;
37559;SDS011;23398;50.928;7.084;2024-01-11T09:52:28;19.40;;;13.20;;
37559;SDS011;23398;50.928;7.084;2024-01-11T09:54:57;18.85;;;12.98;;
37559;SDS011;23398;50.928;7.084;2024-01-11T09:57:29;19.98;;;13.27;;
37559;SDS011;23398;50.928;7.084;2024-01-11T09:59:56;22.15;;;13.57;;
37559;SDS011;23398;50.928;7.084;2024-01-11T10:02:23;21.10;;;13.60;;
37559;SDS011;23398;50.928;7.084;2024-01-11T10:04:51;19.65;;;13.60;;
37559;SDS011;23398;50.928;7.084;2024-01-11T10:07:18;17.95;;;13.13;;
37559;SDS011;23398;50.928;7.084;2024-01-11T10:09:46;19.13;;;13.10;;
37559;SDS011;23398;50.928;7.084;2024-01-11T10:12:12;19.75;;;13.50;;
37559;SDS011;23398;50.928;7.084;2024-01-11T10:14:38;20.50;;;13.82;;
37559;SDS011;23398;50.928;7.084;2024-01-11T10:17:04;20.75;;;13.48;;
37559;SDS011;23398;50.928;7.084;2024-01-11T10:19:30;22.63;;;14.38;;
37559;SDS011;23398;50.928;7.084;2024-01-11T10:21:56;21.98;;;14.48;;
37559;SDS011;23398;50.928;7.084;2024-01-11T10:24:22;21.58;;;14.50;;
37559;SDS011;23398;50.928;7.084;2024-01-11T10:26:51;22.57;;;14.30;;
37559;SDS011;23398;50.928;7.084;2024-01-11T10:29:20;28.53;;;17.53;;
37559;SDS011;23398;50.928;7.084;2024-01-11T10:31:46;24.33;;;15.40;;
37559;SDS011;23398;50.928;7.084;2024-01-11T10:34:11;23.20;;;15.20;;
37559;SDS011;23398;50.928;7.084;2024-01-11T10:36:37;23.70;;;14.93;;
37559;SDS011;23398;50.928;7.084;2024-01-11T10:39:03;23.23;;;14.40;;
37559;SDS011;23398;50.928;7.084;2024-01-11T10:41:35;24.17;;;14.97;;
37559;SDS011;23398;50.928;7.084;2024-01-11T10:44:06;24.03;;;14.63;;
37559;SDS011;23398;50.928;7.084;2024-01-11T10:46:43;25.37;;;14.87;;
37559;SDS011;23398;50.928;7.084;2024-01-11T10:49:11;28.40;;;14.97;;
37559;SDS011;23398;50.928;7.084;2024-01-11T10:51:41;25.17;;;14.90;;
37559;SDS011;23398;50.928;7.084;2024-01-11T10:54:10;22.53;;;14.47;;
37559;SDS011;23398;50.928;7.084;2024-01-11T10:56:36;24.47;;;15.17;;
37559;SDS011;23398;50.928;7.084;2024-01-11T10:59:05;26.03;;;14.77;;
37559;SDS011;23398;50.928;7.084;2024-01-11T11:01:31;25.83;;;15.70;;
37559;SDS011;23398;50.928;7.084;2024-01-11T11:03:57;25.73;;;14.63;;
37559;SDS011;23398;50.928;7.084;2024-01-11T11:06:26;28.60;;;16.53;;
37559;SDS011;23398;50.928;7.084;2024-01-11T11:08:53;24.93;;;15.40;;
37559;SDS011;23398;50.928;7.084;2024-01-11T11:11:19;26.43;;;16.13;;
37559;SDS011;23398;50.928;7.084;2024-01-11T11:13:46;26.60;;;16.50;;
37559;SDS011;23398;50.928;7.084;2024-01-11T11:16:14;26.27;;;15.93;;
37559;SDS011;23398;50.928;7.084;2024-01-11T11:18:40;27.53;;;15.37;;
37559;SDS011;23398;50.928;7.084;2024-01-11T11:21:09;26.23;;;16.07;;
37559;SDS011;23398;50.928;7.084;2024-01-11T11:23:38;28.07;;;16.23;;
37559;SDS011;23398;50.928;7.084;2024-01-11T11:26:05;25.43;;;15.43;;
37559;SDS011;23398;50.928;7.084;2024-01-11T11:28:34;26.57;;;16.27;;
37559;SDS011;23398;50.928;7.084;2024-01-11T11:31:02;28.40;;;15.90;;
37559;SDS011;23398;50.928;7.084;2024-01-11T11:33:27;25.77;;;15.70;;
37559;SDS011;23398;50.928;7.084;2024-01-11T11:35:54;29.93;;;17.43;;
37559;SDS011;23398;50.928;7.084;2024-01-11T11:38:27;29.17;;;16.83;;
37559;SDS011;23398;50.928;7.084;2024-01-11T11:40:54;30.07;;;17.53;;
37559;SDS011;23398;50.928;7.084;2024-01-11T11:43:22;26.13;;;15.63;;
37559;SDS011;23398;50.928;7.084;2024-01-11T11:45:48;25.57;;;15.87;;
37559;SDS011;23398;50.928;7.084;2024-01-11T11:51:10;27.80;;;15.97;;
37559;SDS011;23398;50.928;7.084;2024-01-11T11:53:36;27.57;;;15.37;;
37559;SDS011;23398;50.928;7.084;2024-01-11T11:56:03;26.90;;;16.57;;
37559;SDS011;23398;50.928;7.084;2024-01-11T11:58:29;29.43;;;16.73;;
37559;SDS011;23398;50.928;7.084;2024-01-11T12:00:56;27.93;;;16.37;;
37559;SDS011;23398;50.928;7.084;2024-01-11T12:03:24;26.23;;;16.03;;
37559;SDS011;23398;50.928;7.084;2024-01-11T12:05:54;24.60;;;16.23;;
37559;SDS011;23398;50.928;7.084;2024-01-11T12:08:20;30.13;;;16.43;;
37559;SDS011;23398;50.928;7.084;2024-01-11T12:10:46;29.93;;;17.00;;
37559;SDS011;23398;50.928;7.084;2024-01-11T12:13:12;24.97;;;15.67;;
37559;SDS011;23398;50.928;7.084;2024-01-11T12:15:38;29.97;;;17.07;;
37559;SDS011;23398;50.928;7.084;2024-01-11T12:18:04;39.50;;;26.17;;
37559;SDS011;23398;50.928;7.084;2024-01-11T12:20:32;32.77;;;20.27;;
37559;SDS011;23398;50.928;7.084;2024-01-11T12:22:58;34.57;;;17.90;;
37559;SDS011;23398;50.928;7.084;2024-01-11T12:25:24;26.17;;;17.10;;
37559;SDS011;23398;50.928;7.084;2024-01-11T12:27:49;29.60;;;17.57;;
37559;SDS011;23398;50.928;7.084;2024-01-11T12:30:18;28.23;;;17.43;;
37559;SDS011;23398;50.928;7.084;2024-01-11T12:32:46;29.90;;;18.23;;
37559;SDS011;23398;50.928;7.084;2024-01-11T12:35:12;28.03;;;17.13;;
37559;SDS011;23398;50.928;7.084;2024-01-11T12:37:38;31.53;;;17.23;;
37559;SDS011;23398;50.928;7.084;2024-01-11T12:40:04;29.47;;;17.70;;
37559;SDS011;23398;50.928;7.084;2024-01-11T12:42:31;26.63;;;17.10;;
37559;SDS011;23398;50.928;7.084;2024-01-11T12:45:00;30.97;;;18.17;;
37559;SDS011;23398;50.928;7.084;2024-01-11T12:47:25;28.20;;;17.53;;
37559;SDS011;23398;50.928;7.084;2024-01-11T12:49:51;33.00;;;19.13;;
37559;SDS011;23398;50.928;7.084;2024-01-11T12:52:20;28.33;;;17.57;;
37559;SDS011;23398;50.928;7.084;2024-01-11T12:54:45;28.67;;;17.90;;
37559;SDS011;23398;50.928;7.084;2024-01-11T12:57:18;30.73;;;18.10;;
37559;SDS011;23398;50.928;7.084;2024-01-11T12:59:47;30.43;;;18.00;;
37559;SDS011;23398;50.928;7.084;2024-01-11T13:02:13;28.40;;;17.27;;
37559;SDS011;23398;50.928;7.084;2024-01-11T13:04:42;28.30;;;17.90;;
37559;SDS011;23398;50.928;7.084;2024-01-11T13:07:10;28.13;;;17.37;;
37559;SDS011;23398;50.928;7.084;2024-01-11T13:09:37;29.57;;;17.53;;
37559;SDS011;23398;50.928;7.084;2024-01-11T13:12:03;31.73;;;17.83;;
37559;SDS011;23398;50.928;7.084;2024-01-11T13:14:29;27.37;;;17.00;;
37559;SDS011;23398;50.928;7.084;2024-01-11T13:16:54;30.63;;;18.13;;
37559;SDS011;23398;50.928;7.084;2024-01-11T13:19:20;27.70;;;17.73;;
37559;SDS011;23398;50.928;7.084;2024-01-11T13:21:45;26.67;;;16.73;;
37559;SDS011;23398;50.928;7.084;2024-01-11T13:24:11;30.70;;;17.63;;
37559;SDS011;23398;50.928;7.084;2024-01-11T13:26:38;26.63;;;16.80;;
37559;SDS011;23398;50.928;7.084;2024-01-11T13:29:04;28.77;;;17.57;;
37559;SDS011;23398;50.928;7.084;2024-01-11T13:31:33;29.50;;;18.10;;
37559;SDS011;23398;50.928;7.084;2024-01-11T13:33:58;33.28;;;22.20;;
37559;SDS011;23398;50.928;7.084;2024-01-11T13:36:24;30.23;;;18.77;;
37559;SDS011;23398;50.928;7.084;2024-01-11T13:38:50;31.13;;;18.97;;
37559;SDS011;23398;50.928;7.084;2024-01-11T13:41:16;27.87;;;17.67;;
37559;SDS011;23398;50.928;7.084;2024-01-11T13:43:44;28.17;;;16.93;;
37559;SDS011;23398;50.928;7.084;2024-01-11T13:46:10;25.20;;;16.17;;
37559;SDS011;23398;50.928;7.084;2024-01-11T13:48:39;27.57;;;16.83;;
37559;SDS011;23398;50.928;7.084;2024-01-11T13:51:04;32.37;;;18.80;;
37559;SDS011;23398;50.928;7.084;2024-01-11T13:53:30;29.07;;;17.10;;
37559;SDS011;23398;50.928;7.084;2024-01-11T13:55:56;26.97;;;16.43;;
37559;SDS011;23398;50.928;7.084;2024-01-11T13:58:21;29.47;;;16.73;;
37559;SDS011;23398;50.928;7.084;2024-01-11T14:00:47;26.63;;;16.57;;
37559;SDS011;23398;50.928;7.084;2024-01-11T14:03:13;27.27;;;16.77;;
37559;SDS011;23398;50.928;7.084;2024-01-11T14:05:38;28.97;;;16.97;;
37559;SDS011;23398;50.928;7.084;2024-01-11T14:08:04;27.13;;;16.23;;
37559;SDS011;23398;50.928;7.084;2024-01-11T14:10:33;33.83;;;17.20;;
37559;SDS011;23398;50.928;7.084;2024-01-11T14:13:00;27.07;;;16.77;;
37559;SDS011;23398;50.928;7.084;2024-01-11T14:15:26;29.27;;;18.03;;
37559;SDS011;23398;50.928;7.084;2024-01-11T14:17:52;38.03;;;23.80;;
37559;SDS011;23398;50.928;7.084;2024-01-11T14:20:18;34.40;;;20.53;;
37559;SDS011;23398;50.928;7.084;2024-01-11T14:22:44;28.47;;;17.93;;
37559;SDS011;23398;50.928;7.084;2024-01-11T14:25:14;27.90;;;17.93;;